METAR Data
IDs: Format: Raw Decoded Include TAF

Data at: 0203 UTC 26 Apr 2019

PASI 260153Z 10010KT 10SM SCT037 OVC047 07/02 A3009 RMK AO2 SLP189 T00720017
PASI 260053Z 13009KT 10SM BKN040 OVC100 08/02 A3011 RMK AO2 SLP197 T00780017
PASI 252353Z 11010KT 10SM BKN039 OVC100 08/02 A3014 RMK AO2 SLP205 60001 T00780022 10083 20050 58010
PASI 252253Z 13009KT 10SM BKN033 OVC100 07/03 A3016 RMK AO2 RAB39E49 SLP211 P0000 T00720028
PASI 252153Z 15007KT 10SM BKN030 BKN100 07/03 A3016 RMK AO2 RAB12E44 SLP214 P0001 T00720033
PASI 252053Z 17006KT 10SM BKN030 OVC037 07/03 A3017 RMK AO2 RAE01B20E46 SLP215 P0000 60000 T00720028 56005
PASI 252049Z 18006KT 10SM BKN030 OVC037 07/02 A3017 RMK AO2 RAE01B20E46 P0000
PASI 252037Z 17005KT 8SM -RA BKN029 OVC038 07/03 A3017 RMK AO2 RAE01B20 P0000 T00720028
PASI 251953Z 12008KT 10SM -RA BKN031 OVC041 07/02 A3017 RMK AO2 RAB00 SLP218 P0000 T00720022
PASI 251933Z 11009KT 10SM -RA SCT029 OVC037 07/02 A3018 RMK AO2 RAB00 P0000 T00670022
PASI 251853Z 13009KT 10SM BKN028 OVC037 06/02 A3018 RMK AO2 RAE08 SLP220 P0000 T00610022
PASI 251753Z 13012KT 10SM -RA OVC028 05/01 A3019 RMK AO2 RAB1656 SLP223 P0001 60008 T00500011 10050 20028 55003
PASI 251653Z 11011KT 10SM BKN029 BKN035 OVC047 04/01 A3019 RMK AO2 RAE06 SLP221 P0000 T00440011
PASI 251553Z 10010KT 10SM -RA OVC026 04/01 A3019 RMK AO2 SLP223 P0000 T00390011
PASI 251525Z 11013KT 10SM -RA BKN029 OVC037 04/01 A3019 RMK AO2 P0000 T00390011
PASI 251453Z 10012G16KT 10SM -RA OVC033 03/01 A3020 RMK AO2 SLP226 P0002 60007 T00330011 55008
PASI 251444Z 11006KT 10SM -RA OVC031 03/02 A3020 RMK AO2 P0002 T00330017
PASI 251353Z 08006KT 8SM -RA OVC021 03/01 A3020 RMK AO2 SLP225 P0002 T00330011
PASI 251334Z 09007KT 10SM -RA OVC027 03/01 A3020 RMK AO2 P0000 T00330006
PASI 251302Z 08005KT 10SM -RA OVC033 03/01 A3020 RMK AO2 P0000 T00330011
PASI 251253Z 07006KT 10SM -RA OVC029 03/01 A3020 RMK AO2 SLP227 P0003 T00330011
PASI 251153Z 08006KT 9SM -RA OVC028 04/00 A3022 RMK AO2 SLP234 P0000 60000 70010 T00390000 10050 20033 56010
PASI 251151Z VRB06KT 10SM -RA OVC028 04/00 A3022 RMK AO2 P0000
PASI 251053Z 08006KT 10SM -RA OVC039 04/M01 A3024 RMK AO2 RAB48 SLP239 P0000 T00391011
PASI 250953Z 11013KT 10SM OVC040 04/M02 A3025 RMK AO2 SLP244 T00441017
PASI 250853Z 10007KT 10SM OVC041 04/M02 A3027 RMK AO2 SLP249 T00441017 400670006 56013
PASI 250753Z 09009KT 10SM OVC050 04/M03 A3027 RMK AO2 SLP251 T00441028
PASI 250653Z 10008KT 10SM BKN050 04/00 A3029 RMK AO2 SLP257 T00390000
PASI 250553Z 09006KT 10SM BKN050 03/00 A3031 RMK AO2 SLP262 T00330000 10067 20033 58010
PASI 250453Z 12006KT 10SM BKN050 04/02 A3032 RMK AO2 SLP268 T00440017
PASI 250353Z COR 00000KT 10SM BKN050 05/M02 A3033 RMK AO2 SLP269 T00501017
PASI 250253Z 18005KT 10SM BKN055 06/M01 A3034 RMK AO2 SLP272 T00561006 58010
PASI 250153Z 22006KT 10SM SCT039 SCT055 06/M01 A3035 RMK AO2 SLP277 T00611011
PASI 250053Z 23005KT 10SM SCT049 07/M02 A3036 RMK AO2 SLP280 T00671017
PASI 242353Z 23007KT 10SM SCT035 06/M01 A3037 RMK AO2 SLP282 60006 T00611011 10067 20022 50002
PASI 242253Z 21007KT 10SM SCT034 06/M01 A3037 RMK AO2 SLP283 T00611011
PASI 242153Z 19009KT 10SM FEW034 06/01 A3036 RMK AO2 SLP282 T00610011
PASI 242053Z 12003KT 10SM SCT020 06/M01 A3036 RMK AO2 SLP280 60006 T00561006 51015
PASI 241953Z 13005KT 10SM CLR 05/01 A3035 RMK AO2 SLP277 T00500011
PASI 241853Z 09004KT 10SM FEW029 OVC060 04/02 A3033 RMK AO2 SLP271 P0006 T00390017
PASI 241812Z 06004KT 5SM BKN015 BKN036 OVC070 03/M01 A3032 RMK AO2 P0003 T00281006
PASI 241753Z 12006KT 10SM SCT010 04/02 A3032 RMK AO2 SLP265 60004 T00440017 10044 20006 51016
PASI 241653Z 11006KT 10SM FEW010 SCT020 03/00 A3030 RMK AO2 SLP260 T00280000
PASI 241553Z 10007KT 10SM FEW010 SCT020 02/01 A3029 RMK AO2 SLP255 T00220011
PASI 241527Z 13008KT 10SM SCT022 02/01 A3028 RMK AO2 T00170006
PASI 241513Z 10006KT 10SM BKN024 BKN028 OVC070 02/01 A3027 RMK AO2 T00170006
PASI 241453Z 11007KT 10SM SCT026 SCT070 02/01 A3027 RMK AO2 SLP249 60004 T00170011 53012 $
PASI 241444Z 11007KT 10SM SCT018 01/01 A3026 RMK AO2 T00110006